createdAt,value
2022-08-17T00:00:43.193Z,100055.66
2022-08-17T00:03:42.974Z,100046.81
2022-08-17T00:06:44.942Z,100049.25
2022-08-17T00:09:47.750Z,100049.44
2022-08-17T00:12:49.580Z,100053.56
2022-08-17T00:15:52.130Z,100053.28
2022-08-17T00:19:07.973Z,100049.03
2022-08-17T00:22:33.716Z,100040.97
2022-08-17T00:25:32.291Z,100043.38
2022-08-17T00:28:34.285Z,100039.16
2022-08-17T00:31:37.123Z,100040.19
2022-08-17T00:34:39.283Z,100043.47
2022-08-17T00:37:40.962Z,100043.84
2022-08-17T00:40:47.051Z,100052.84
2022-08-17T00:43:53.288Z,100052.47
2022-08-17T00:46:55.164Z,100042.34
2022-08-17T00:49:56.835Z,100031.78
2022-08-17T00:52:58.827Z,100039.47
2022-08-17T00:56:03.197Z,100032.69
2022-08-17T00:59:08.965Z,100031.41
2022-08-17T01:02:15.021Z,100030.25
2022-08-17T01:05:20.752Z,100033.16
2022-08-17T01:08:27.122Z,100032.81
2022-08-17T01:11:30.153Z,100028.75
2022-08-17T01:14:32.065Z,100032.69
2022-08-17T01:17:34.434Z,100031.00
2022-08-17T01:20:48.150Z,100033.88
2022-08-17T01:23:50.505Z,100040.72
2022-08-17T01:26:52.167Z,100041.09
2022-08-17T01:29:59.560Z,100051.47
2022-08-17T01:33:01.270Z,100052.69
2022-08-17T01:36:04.196Z,100051.97
2022-08-17T01:39:09.501Z,100063.25
2022-08-17T01:42:23.404Z,100062.84
2022-08-17T01:45:29.173Z,100072.63
2022-08-17T01:48:35.878Z,100062.63
2022-08-17T01:51:38.664Z,100055.50
2022-08-17T01:54:43.490Z,100069.28
2022-08-17T01:57:45.646Z,100070.16
2022-08-17T02:01:00.934Z,100063.69
2022-08-17T02:04:05.706Z,100061.19
2022-08-17T02:07:07.329Z,100054.22
2022-08-17T02:10:19.881Z,100052.34
2022-08-17T02:13:22.183Z,100048.09
2022-08-17T02:16:23.809Z,100044.69
2022-08-17T02:19:25.490Z,100046.56
2022-08-17T02:22:27.702Z,100045.88
2022-08-17T02:25:32.515Z,100047.56
2022-08-17T02:28:34.338Z,100046.91
2022-08-17T02:31:35.935Z,100047.94
2022-08-17T02:34:37.613Z,100041.16
2022-08-17T02:37:42.001Z,100044.88
2022-08-17T02:40:43.707Z,100039.66
2022-08-17T02:43:46.968Z,100047.13
2022-08-17T02:46:48.597Z,100043.72
2022-08-17T02:49:55.464Z,100052.03
2022-08-17T02:53:02.250Z,100041.00
2022-08-17T02:56:04.620Z,100040.31
2022-08-17T02:59:06.266Z,100040.84
2022-08-17T03:02:10.607Z,100044.59
2022-08-17T03:05:14.583Z,100041.38
2022-08-17T03:08:16.425Z,100047.81
2022-08-17T03:11:18.081Z,100046.31
2022-08-17T03:14:19.793Z,100048.53
2022-08-17T03:17:27.985Z,100050.22
2022-08-17T03:20:32.162Z,100049.53
2022-08-17T03:23:33.947Z,100046.13
2022-08-17T03:26:36.114Z,100043.78
2022-08-17T03:29:37.778Z,100049.53
2022-08-17T03:32:43.021Z,100044.44
2022-08-17T03:35:44.780Z,100045.66
2022-08-17T03:38:46.394Z,100039.03
2022-08-17T03:41:48.083Z,100045.66
2022-08-17T03:44:50.724Z,100046.38
2022-08-17T03:48:11.150Z,100041.25
2022-08-17T03:51:42.586Z,100038.88
2022-08-17T03:55:03.787Z,100035.50
2022-08-17T03:58:05.429Z,100038.75
2022-08-17T04:01:07.782Z,100035.34
2022-08-17T04:04:09.838Z,100042.81
2022-08-17T04:07:11.952Z,100040.44
2022-08-17T04:10:14.113Z,100038.56
2022-08-17T04:13:15.832Z,100041.44
2022-08-17T04:16:26.904Z,100034.47
2022-08-17T04:19:28.457Z,100033.31
2022-08-17T04:22:34.282Z,100043.66
2022-08-17T04:25:38.475Z,100043.47
2022-08-17T04:28:41.941Z,100049.78
2022-08-17T04:31:44.603Z,100048.91
2022-08-17T04:34:46.217Z,100054.50
2022-08-17T04:37:47.995Z,100052.47
2022-08-17T04:41:08.666Z,100045.88
2022-08-17T04:44:11.543Z,100056.88
2022-08-17T04:47:14.012Z,100060.13
2022-08-17T04:50:15.655Z,100065.00
2022-08-17T04:53:19.547Z,100069.59
2022-08-17T04:56:21.610Z,100076.22
2022-08-17T04:59:23.385Z,100078.06
2022-08-17T05:02:24.990Z,100076.03
2022-08-17T05:05:33.971Z,100078.72
2022-08-17T05:08:35.610Z,100079.41
2022-08-17T05:11:37.821Z,100078.75
2022-08-17T05:14:46.520Z,100083.13
2022-08-17T05:17:48.113Z,100085.50
2022-08-17T05:20:49.834Z,100091.78
2022-08-17T05:23:56.392Z,100093.63
2022-08-17T05:27:02.582Z,100097.34
2022-08-17T05:30:08.379Z,100096.47
2022-08-17T05:33:20.850Z,100104.97
2022-08-17T05:36:41.622Z,100097.22
2022-08-17T05:39:44.109Z,100093.38
2022-08-17T05:42:45.825Z,100089.41
2022-08-17T05:46:06.079Z,100090.25
2022-08-17T05:49:08.526Z,100098.88
2022-08-17T05:52:38.510Z,100100.00
2022-08-17T05:55:56.025Z,100086.19
2022-08-17T05:59:25.139Z,100097.09
2022-08-17T06:02:47.868Z,100100.41
2022-08-17T06:06:32.168Z,100103.81
2022-08-17T06:09:44.583Z,100091.41
2022-08-17T06:12:46.117Z,100097.78
2022-08-17T06:16:31.160Z,100102.41
2022-08-17T06:19:50.897Z,100087.19
2022-08-17T06:22:59.505Z,100097.16
2022-08-17T06:26:10.888Z,100098.16
2022-08-17T06:29:50.805Z,100094.59
2022-08-17T06:32:55.177Z,100092.06
2022-08-17T06:36:25.280Z,100092.16
2022-08-17T06:39:37.706Z,100097.03
2022-08-17T06:42:54.738Z,100092.81
2022-08-17T06:46:16.733Z,100092.66
2022-08-17T06:49:21.971Z,100091.75
2022-08-17T06:52:45.507Z,100090.47
2022-08-17T06:55:59.990Z,100093.72
2022-08-17T06:59:03.247Z,100093.16
2022-08-17T07:02:09.051Z,100085.38
2022-08-17T07:05:14.575Z,100093.00
2022-08-17T07:08:54.714Z,100093.50
2022-08-17T07:12:10.019Z,100090.03
2022-08-17T07:15:16.598Z,100087.50
2022-08-17T07:18:18.325Z,100090.00
2022-08-17T07:21:27.064Z,100093.91
2022-08-17T07:24:59.549Z,100096.38
2022-08-17T07:28:07.016Z,100099.19
2022-08-17T07:31:09.407Z,100104.31
2022-08-17T07:34:16.102Z,100101.00
2022-08-17T07:37:19.308Z,100099.56
2022-08-17T07:40:33.673Z,100103.13
2022-08-17T07:43:36.662Z,100101.22
2022-08-17T07:47:07.991Z,100098.63
2022-08-17T07:50:28.901Z,100102.09
2022-08-17T07:53:31.917Z,100110.09
2022-08-17T07:56:37.878Z,100103.94
2022-08-17T07:59:43.203Z,100109.44
2022-08-17T08:02:58.958Z,100108.56
2022-08-17T08:06:03.347Z,100109.38
2022-08-17T08:09:04.970Z,100108.69
2022-08-17T08:12:32.715Z,100107.03
2022-08-17T08:15:39.730Z,100111.75
2022-08-17T08:18:55.015Z,100107.78
2022-08-17T08:22:07.631Z,100112.75
2022-08-17T08:25:24.858Z,100119.88
2022-08-17T08:28:34.565Z,100119.19
2022-08-17T08:31:48.442Z,100126.13
2022-08-17T08:35:07.230Z,100130.81
2022-08-17T08:38:24.755Z,100119.59
2022-08-17T08:41:48.218Z,100111.97
2022-08-17T08:45:05.506Z,100124.25
2022-08-17T08:48:53.344Z,100125.75
2022-08-17T08:51:59.670Z,100125.59
2022-08-17T08:55:26.067Z,100123.53
2022-08-17T08:58:43.815Z,100129.84
2022-08-17T09:02:04.095Z,100129.59
2022-08-17T09:05:26.986Z,100138.38
2022-08-17T09:08:31.803Z,100135.31
2022-08-17T09:12:02.302Z,100135.69
2022-08-17T09:15:10.916Z,100128.59
2022-08-17T09:19:00.336Z,100130.44
2022-08-17T09:22:07.696Z,100136.94
2022-08-17T09:25:12.209Z,100131.53
2022-08-17T09:28:20.299Z,100128.34
2022-08-17T09:31:33.286Z,100135.69
2022-08-17T09:34:48.382Z,100135.09
2022-08-17T09:37:50.301Z,100132.13
2022-08-17T09:41:07.471Z,100128.16
2022-08-17T09:44:36.133Z,100120.03
2022-08-17T09:47:45.906Z,100125.31
2022-08-17T09:51:05.224Z,100119.81
2022-08-17T09:54:38.474Z,100127.94
2022-08-17T09:57:44.119Z,100117.47
2022-08-17T10:01:01.849Z,100106.28
2022-08-17T10:04:17.721Z,100109.91
2022-08-17T10:07:28.960Z,100119.00
2022-08-17T10:10:52.499Z,100115.66
2022-08-17T10:14:37.282Z,100108.19
2022-08-17T10:17:46.802Z,100106.88
2022-08-17T10:21:17.501Z,100103.75
2022-08-17T10:25:21.248Z,100095.88
2022-08-17T10:28:20.052Z,100096.31
2022-08-17T10:31:35.692Z,100101.72
2022-08-17T10:35:03.489Z,100091.38
2022-08-17T10:38:17.219Z,100095.44
2022-08-17T10:41:26.912Z,100093.81
2022-08-17T10:44:51.468Z,100092.25
2022-08-17T10:48:04.848Z,100094.91
2022-08-17T10:51:36.405Z,100085.69
2022-08-17T10:54:49.052Z,100087.84
2022-08-17T10:57:51.142Z,100084.97
2022-08-17T11:00:53.361Z,100086.91
2022-08-17T11:03:58.366Z,100089.66
2022-08-17T11:07:25.803Z,100088.47
2022-08-17T11:11:03.006Z,100084.38
2022-08-17T11:14:33.856Z,100090.72
2022-08-17T11:17:49.854Z,100090.53
2022-08-17T11:21:09.503Z,100079.25
2022-08-17T11:24:30.615Z,100083.22
2022-08-17T11:27:36.548Z,100070.72
2022-08-17T11:30:59.403Z,100078.63
2022-08-17T11:34:05.432Z,100075.28
2022-08-17T11:37:31.052Z,100069.97
2022-08-17T11:40:35.798Z,100071.91
2022-08-17T11:43:55.897Z,100074.41
2022-08-17T11:47:36.852Z,100080.34
2022-08-17T11:51:03.917Z,100072.88
2022-08-17T11:57:41.504Z,100070.94
2022-08-17T12:00:46.043Z,100074.06
2022-08-17T12:03:55.231Z,100075.00
2022-08-17T12:07:06.683Z,100057.81
2022-08-17T12:10:12.219Z,100065.88
2022-08-17T12:13:16.357Z,100065.59
2022-08-17T12:16:20.628Z,100063.34
2022-08-17T12:19:23.774Z,100072.34
2022-08-17T12:22:33.206Z,100057.22
2022-08-17T12:25:56.675Z,100056.00
2022-08-17T12:29:09.374Z,100049.63
2022-08-17T12:32:21.924Z,100045.75
2022-08-17T12:35:35.442Z,100052.97
2022-08-17T12:38:38.195Z,100051.66
2022-08-17T12:41:43.302Z,100047.19
2022-08-17T12:44:50.309Z,100048.13
2022-08-17T12:48:07.822Z,100040.84
2022-08-17T12:51:12.308Z,100036.13
2022-08-17T12:54:31.515Z,100036.47
2022-08-17T12:57:47.635Z,100034.81
2022-08-17T13:00:56.237Z,100033.72
2022-08-17T13:04:00.150Z,100032.78
2022-08-17T13:07:01.815Z,100025.78
2022-08-17T13:10:04.293Z,100027.47
2022-08-17T13:13:26.007Z,100024.00
2022-08-17T13:16:33.328Z,100015.81
2022-08-17T13:19:38.978Z,100014.81
2022-08-17T13:22:44.370Z,100010.81
2022-08-17T13:25:54.124Z,100007.88
2022-08-17T13:28:55.772Z,100014.25
2022-08-17T13:32:17.982Z,100017.88
2022-08-17T13:35:39.455Z,100004.19
2022-08-17T13:38:49.596Z,100005.38
2022-08-17T13:41:56.090Z,100010.06
2022-08-17T13:44:59.923Z,100006.97
2022-08-17T13:48:07.600Z,99996.16
2022-08-17T13:51:24.732Z,99994.16
2022-08-17T13:54:33.201Z,99995.63
2022-08-17T13:57:36.148Z,100003.38
2022-08-17T14:00:37.852Z,100003.06
2022-08-17T14:03:39.471Z,99998.88
2022-08-17T14:07:19.737Z,100005.47
2022-08-17T14:10:21.659Z,99999.22
2022-08-17T14:13:23.472Z,99995.22
2022-08-17T14:16:25.206Z,99983.75
2022-08-17T14:19:26.848Z,99993.47
2022-08-17T14:22:31.801Z,99987.03
2022-08-17T14:25:33.471Z,99992.34
2022-08-17T14:28:36.388Z,99991.81
2022-08-17T14:31:39.002Z,99991.25
2022-08-17T14:34:40.803Z,99997.66
2022-08-17T14:37:44.823Z,100036.53
2022-08-17T14:40:48.231Z,100026.81
2022-08-17T14:43:51.445Z,100021.72
2022-08-17T14:46:53.142Z,100039.66
2022-08-17T14:49:54.865Z,100052.09
2022-08-17T14:52:58.164Z,100049.81
2022-08-17T14:56:01.696Z,100047.47
2022-08-17T14:59:07.701Z,100040.06
2022-08-17T15:02:11.004Z,100047.31
2022-08-17T15:05:15.071Z,100048.06
2022-08-17T15:08:17.879Z,100050.66
2022-08-17T15:11:19.784Z,100042.16
2022-08-17T15:14:22.452Z,100045.72
2022-08-17T15:17:24.158Z,100046.66
2022-08-17T15:20:29.013Z,100039.97
2022-08-17T15:23:31.812Z,100037.50
2022-08-17T15:26:33.541Z,100038.22
2022-08-17T15:29:35.144Z,100035.28
2022-08-17T15:32:40.156Z,100021.38
2022-08-17T15:35:42.843Z,100016.78
2022-08-17T15:38:45.972Z,100007.53
2022-08-17T15:41:58.348Z,100002.16
2022-08-17T15:45:13.328Z,100000.16
2022-08-17T15:48:15.009Z,99994.75
2022-08-17T15:51:18.756Z,100000.66
2022-08-17T15:54:22.444Z,99989.28
2022-08-17T15:57:25.929Z,99988.19
2022-08-17T16:00:29.268Z,99984.97
2022-08-17T16:03:58.182Z,99986.81
2022-08-17T16:06:54.362Z,99987.00
2022-08-17T16:09:56.273Z,99982.31
2022-08-17T16:12:58.692Z,99988.63
2022-08-17T16:16:00.305Z,99983.59
2022-08-17T16:19:01.938Z,99971.78
2022-08-17T16:22:05.620Z,99958.25
2022-08-17T16:25:11.223Z,99959.09
2022-08-17T16:28:15.414Z,99952.75
2022-08-17T16:31:17.392Z,99965.66
2022-08-17T16:34:19.146Z,99962.28
2022-08-17T16:37:20.721Z,99968.59
2022-08-17T16:40:25.945Z,99966.50
2022-08-17T16:43:29.312Z,99968.16
2022-08-17T16:46:31.226Z,99963.53
2022-08-17T16:49:37.332Z,99953.38
2022-08-17T16:52:40.691Z,99965.59
2022-08-17T16:55:42.864Z,99966.22
2022-08-17T16:58:45.002Z,99966.63
2022-08-17T17:01:47.785Z,99964.72
2022-08-17T17:05:15.743Z,99966.56
2022-08-17T17:08:44.583Z,99964.88
2022-08-17T17:11:50.927Z,99969.31
2022-08-17T17:14:53.312Z,99965.09
2022-08-17T17:18:01.796Z,99977.38
2022-08-17T17:21:14.122Z,99986.28
2022-08-17T17:24:26.159Z,99993.28
2022-08-17T17:27:38.039Z,99987.63
2022-08-17T17:31:08.167Z,99981.94
2022-08-17T17:34:16.559Z,99977.75
2022-08-17T17:37:26.151Z,99996.31
2022-08-17T17:40:47.265Z,100000.16
2022-08-17T17:44:02.717Z,100004.25
2022-08-17T17:47:05.323Z,100009.13
2022-08-17T17:50:08.037Z,100014.66
2022-08-17T17:53:26.104Z,100010.66
2022-08-17T17:56:55.687Z,100000.53
2022-08-17T18:00:12.705Z,100010.69
2022-08-17T18:03:20.445Z,100011.16
2022-08-17T18:06:21.929Z,100026.34
2022-08-17T18:09:34.016Z,100027.41
2022-08-17T18:13:08.018Z,100030.16
2022-08-17T18:16:14.025Z,100027.84
2022-08-17T18:19:21.420Z,100021.06
2022-08-17T18:22:23.696Z,100021.06
2022-08-17T18:25:44.594Z,100019.22
2022-08-17T18:28:50.744Z,100031.03
2022-08-17T18:32:13.684Z,100025.16
2022-08-17T18:35:18.339Z,100028.31
2022-08-17T18:38:22.253Z,100031.47
2022-08-17T18:41:30.342Z,100035.91
2022-08-17T18:44:38.101Z,100037.63
2022-08-17T18:47:55.619Z,100030.66
2022-08-17T18:51:26.338Z,100028.72
2022-08-17T18:55:11.549Z,100037.78
2022-08-17T18:58:18.229Z,100037.53
2022-08-17T19:01:21.347Z,100035.63
2022-08-17T19:04:32.769Z,100032.03
2022-08-17T19:07:43.334Z,100024.03
2022-08-17T19:10:48.621Z,100024.84
2022-08-17T19:13:56.938Z,100023.31
2022-08-17T19:17:09.013Z,100016.53
2022-08-17T19:20:19.887Z,100011.44
2022-08-17T19:23:36.043Z,100015.16
2022-08-17T19:26:54.826Z,100019.78
2022-08-17T19:30:08.200Z,100023.91
2022-08-17T19:33:10.242Z,100023.22
2022-08-17T19:36:22.461Z,100026.56
2022-08-17T19:39:59.276Z,100026.09
2022-08-17T19:43:06.906Z,100023.31
2022-08-17T19:46:42.975Z,100015.22
2022-08-17T19:50:10.278Z,100014.72
2022-08-17T19:53:47.795Z,100010.72
2022-08-17T19:57:05.582Z,100027.53
2022-08-17T20:00:18.544Z,100027.88
2022-08-17T20:03:34.906Z,100035.34
2022-08-17T20:06:40.398Z,100041.78
2022-08-17T20:10:05.666Z,100042.34
2022-08-17T20:13:16.910Z,100044.66
2022-08-17T20:16:20.125Z,100057.59
2022-08-17T20:19:29.757Z,100063.63
2022-08-17T20:22:52.048Z,100057.50
2022-08-17T20:26:09.436Z,100061.88
2022-08-17T20:29:14.310Z,100051.97
2022-08-17T20:32:25.127Z,100060.16
2022-08-17T20:35:31.190Z,100066.41
2022-08-17T20:38:40.362Z,100060.00
2022-08-17T20:42:04.455Z,100056.56
2022-08-17T20:45:38.350Z,100052.31
2022-08-17T20:48:46.426Z,100055.22
2022-08-17T20:52:13.577Z,100043.88
2022-08-17T20:55:33.901Z,100043.13
2022-08-17T20:58:37.002Z,100048.50
2022-08-17T21:01:40.567Z,100060.66
2022-08-17T21:04:50.010Z,100060.38
2022-08-17T21:07:59.360Z,100047.97
2022-08-17T21:12:03.445Z,100056.72
2022-08-17T21:15:03.768Z,100047.59
2022-08-17T21:18:18.394Z,100051.53
2022-08-17T21:21:29.270Z,100050.25
2022-08-17T21:24:43.466Z,100056.66
2022-08-17T21:28:07.208Z,100052.78
2022-08-17T21:31:38.601Z,100059.81
2022-08-17T21:34:44.984Z,100069.22
2022-08-17T21:37:49.945Z,100053.41
2022-08-17T21:40:53.194Z,100056.31
2022-08-17T21:44:02.791Z,100048.53
2022-08-17T21:47:24.529Z,100062.16
2022-08-17T21:50:26.199Z,100057.44
2022-08-17T21:53:48.140Z,100058.66
2022-08-17T21:56:50.187Z,100053.75
2022-08-17T22:00:05.571Z,100049.19
2022-08-17T22:03:23.646Z,100050.56
2022-08-17T22:06:36.166Z,100046.72
2022-08-17T22:09:47.718Z,100043.22
2022-08-17T22:13:06.034Z,100041.91
2022-08-17T22:16:28.969Z,100038.91
2022-08-17T22:19:34.891Z,100046.56
2022-08-17T22:23:18.368Z,100049.50
2022-08-17T22:26:22.633Z,100048.81
2022-08-17T22:29:44.594Z,100062.06
2022-08-17T22:32:48.411Z,100067.03
2022-08-17T22:36:20.281Z,100073.66
2022-08-17T22:39:23.786Z,100088.91
2022-08-17T22:42:25.686Z,100092.88
2022-08-17T22:45:31.116Z,100107.22
2022-08-17T22:48:33.583Z,100112.16
2022-08-17T22:51:36.574Z,100121.72
2022-08-17T22:54:56.883Z,100117.78
2022-08-17T22:58:17.788Z,100133.59
2022-08-17T23:01:31.397Z,100132.91
2022-08-17T23:04:37.703Z,100135.09
2022-08-17T23:07:44.800Z,100138.88
2022-08-17T23:10:47.725Z,100142.78
2022-08-17T23:13:49.892Z,100134.28
2022-08-17T23:16:51.552Z,100141.41
2022-08-17T23:19:54.812Z,100135.41
2022-08-17T23:22:59.575Z,100123.16
2022-08-17T23:26:01.793Z,100126.88
2022-08-17T23:29:07.622Z,100117.31
2022-08-17T23:32:13.542Z,100119.69
2022-08-17T23:35:16.684Z,100120.69
2022-08-17T23:38:18.350Z,100120.81
2022-08-17T23:41:23.317Z,100120.75
2022-08-17T23:44:25.216Z,100115.44
2022-08-17T23:47:28.612Z,100110.09
2022-08-17T23:50:30.249Z,100115.50
2022-08-17T23:53:34.706Z,100110.91
2022-08-17T23:56:45.539Z,100115.22
2022-08-17T23:59:47.296Z,100123.53
